Time;durP1;ratioP1;P1;durP2;ratioP2;P2;SDS_P1;SDS_P2;PMS_P1;PMS_P2;Temp;Humidity;BMP_temperature;BMP_pressure;BME280_temperature;BME280_humidity;BME280_pressure;Samples;Min_cycle;Max_cycle;Signal;HPM_P1;HPM_P2
2023/06/22 00:01:38;;;;;;;27.02;8.27;;;;;;;32.02;68.70;97421.41;4947808;28;20065;-67
2023/06/22 00:04:07;;;;;;;23.55;6.78;;;;;;;32.02;68.95;97426.88;4958245;28;20495;-67
2023/06/22 00:06:37;;;;;;;29.88;7.45;;;;;;;32.02;68.80;97424.94;4945383;28;20054;-67
2023/06/22 00:09:10;;;;;;;21.52;7.45;;;;;;;32.01;70.09;97415.13;4943794;28;20672;-67
2023/06/22 00:11:40;;;;;;;21.38;7.47;;;;;;;32.00;69.85;97410.78;4946671;28;20581;-67
2023/06/22 00:14:09;;;;;;;27.50;7.13;;;;;;;32.00;69.77;97418.22;4941094;28;20513;-68
2023/06/22 00:16:38;;;;;;;20.42;7.65;;;;;;;31.98;69.94;97431.50;4944561;28;20728;-67
2023/06/22 00:19:11;;;;;;;16.98;6.70;;;;;;;31.98;69.93;97436.97;4951886;28;20065;-67
2023/06/22 00:21:42;;;;;;;20.88;7.30;;;;;;;31.96;70.27;97434.59;4959329;28;20687;-67
2023/06/22 00:24:11;;;;;;;25.50;7.18;;;;;;;31.95;70.43;97444.00;4945787;28;20055;-68
2023/06/22 00:26:41;;;;;;;19.65;7.32;;;;;;;31.95;70.71;97452.22;4914957;28;20058;-68
2023/06/22 00:29:11;;;;;;;21.67;7.93;;;;;;;31.96;71.00;97450.22;4958152;28;20065;-67
2023/06/22 00:31:41;;;;;;;21.65;7.82;;;;;;;31.95;71.06;97454.94;4954912;28;20053;-68
2023/06/22 00:34:10;;;;;;;25.23;6.78;;;;;;;31.98;71.38;97467.91;4946007;28;20122;-67
2023/06/22 00:36:40;;;;;;;23.20;7.00;;;;;;;32.01;71.60;97464.44;4958052;28;20732;-67
2023/06/22 00:39:10;;;;;;;18.48;7.03;;;;;;;31.98;71.51;97456.16;4957921;28;20113;-67
2023/06/22 00:41:39;;;;;;;23.23;7.05;;;;;;;32.00;72.34;97457.38;4940386;28;20229;-67
2023/06/22 00:44:09;;;;;;;25.00;8.75;;;;;;;31.99;72.96;97466.75;4940566;28;20082;-67
2023/06/22 00:46:39;;;;;;;22.45;7.03;;;;;;;31.97;72.81;97468.25;4957237;28;20054;-67
2023/06/22 00:49:08;;;;;;;20.75;6.68;;;;;;;31.97;72.98;97474.53;4932527;28;20054;-68
2023/06/22 00:51:39;;;;;;;24.35;9.35;;;;;;;31.99;73.36;97494.16;4940977;28;20146;-67
2023/06/22 00:54:10;;;;;;;21.42;7.82;;;;;;;32.01;73.50;97497.31;4928707;28;20689;-67
2023/06/22 00:56:42;;;;;;;16.58;7.28;;;;;;;31.99;73.70;97480.47;4956291;28;20110;-67
2023/06/22 00:59:12;;;;;;;24.58;7.75;;;;;;;32.04;74.22;97495.81;4946908;28;20057;-68
2023/06/22 01:01:41;;;;;;;26.38;8.90;;;;;;;32.06;73.68;97488.81;4957435;28;20664;-68
2023/06/22 01:04:11;;;;;;;27.98;8.85;;;;;;;32.12;74.22;97496.75;4958629;28;20445;-67
2023/06/22 01:07:35;;;;;;;19.08;7.70;;;;;;;32.16;74.23;97497.63;4959026;28;20058;-67
2023/06/22 01:10:21;;;;;;;26.00;8.70;;;;;;;32.17;74.01;97491.78;4902842;28;20138;-66
2023/06/22 01:13:04;;;;;;;26.27;8.88;;;;;;;32.18;72.18;97495.28;4961358;28;20046;-66
2023/06/22 01:15:56;;;;;;;26.10;10.57;;;;;;;32.27;73.28;97493.13;4940317;28;20051;-66
2023/06/22 01:18:30;;;;;;;28.23;11.05;;;;;;;32.30;73.62;97501.44;4930750;28;20065;-66
2023/06/22 01:21:02;;;;;;;29.10;12.15;;;;;;;32.34;74.13;97510.50;4940197;28;20139;-66
2023/06/22 01:24:13;;;;;;;35.38;12.75;;;;;;;32.35;74.23;97509.31;4959079;28;20487;-66
2023/06/22 01:26:47;;;;;;;41.17;14.98;;;;;;;32.36;74.46;97513.66;4950745;28;20054;-66
2023/06/22 01:29:20;;;;;;;43.63;14.85;;;;;;;32.40;74.82;97516.44;4930759;28;20474;-66
2023/06/22 01:31:51;;;;;;;35.90;15.27;;;;;;;32.44;75.33;97515.38;4947921;28;20050;-66
2023/06/22 01:34:23;;;;;;;41.08;15.88;;;;;;;32.47;74.19;97513.84;4949618;28;20820;-66
2023/06/22 01:36:53;;;;;;;37.03;15.80;;;;;;;32.51;74.59;97521.00;4946600;28;20575;-66
2023/06/22 01:39:24;;;;;;;37.80;15.60;;;;;;;32.58;74.77;97527.75;4916960;28;20073;-66
2023/06/22 01:41:54;;;;;;;39.25;15.68;;;;;;;32.61;74.67;97530.56;4927078;28;20062;-65
2023/06/22 01:44:25;;;;;;;34.80;15.70;;;;;;;32.64;74.57;97538.09;4950051;28;20415;-66
2023/06/22 01:46:56;;;;;;;40.42;15.38;;;;;;;32.67;74.76;97545.56;4962238;28;20055;-66
2023/06/22 01:49:26;;;;;;;38.72;15.15;;;;;;;32.73;75.77;97546.88;4933961;28;20050;-66
2023/06/22 01:51:55;;;;;;;39.70;15.40;;;;;;;32.79;76.12;97550.91;4937281;28;20146;-65
2023/06/22 01:54:25;;;;;;;32.72;15.13;;;;;;;32.86;73.80;97556.50;4925156;28;20054;-66
2023/06/22 01:56:55;;;;;;;36.03;14.55;;;;;;;33.03;74.33;97549.72;4949946;28;20077;-66
2023/06/22 01:59:32;;;;;;;32.97;13.50;;;;;;;33.27;73.64;97546.59;4960821;28;20061;-65
2023/06/22 02:02:09;;;;;;;40.88;14.05;;;;;;;33.49;71.88;97544.97;4943959;28;20636;-65
2023/06/22 02:04:48;;;;;;;32.63;12.90;;;;;;;33.76;71.11;97545.75;4958504;28;20057;-65
2023/06/22 02:07:20;;;;;;;35.35;13.07;;;;;;;34.06;69.67;97543.78;4921917;28;20051;-66
2023/06/22 02:09:52;;;;;;;32.78;11.68;;;;;;;34.25;67.76;97540.09;4947727;28;20047;-67
2023/06/22 02:12:27;;;;;;;34.50;10.73;;;;;;;34.45;66.91;97555.25;4948827;28;20065;-67
2023/06/22 02:14:58;;;;;;;32.70;10.18;;;;;;;34.75;66.08;97563.41;4931815;28;20078;-66
2023/06/22 02:17:27;;;;;;;29.02;9.23;;;;;;;35.07;63.30;97560.94;4933891;28;20142;-66
2023/06/22 02:19:57;;;;;;;25.00;8.77;;;;;;;35.24;61.94;97563.06;4951414;28;20082;-66
2023/06/22 02:22:26;;;;;;;27.42;9.35;;;;;;;35.52;60.41;97560.53;4941173;28;20542;-66
2023/06/22 02:24:56;;;;;;;40.10;10.50;;;;;;;35.66;58.96;97556.31;4935332;28;20070;-67
2023/06/22 02:27:26;;;;;;;34.55;8.35;;;;;;;35.72;58.36;97566.56;4948450;28;21191;-66
2023/06/22 02:29:56;;;;;;;18.98;7.15;;;;;;;36.03;58.70;97560.41;4935654;28;20493;-67
2023/06/22 02:32:25;;;;;;;26.73;8.27;;;;;;;36.37;58.03;97569.25;4951351;28;20050;-66
2023/06/22 02:34:55;;;;;;;31.20;8.75;;;;;;;36.48;54.35;97570.06;4939026;28;20051;-65
2023/06/22 02:37:25;;;;;;;29.48;7.10;;;;;;;36.86;54.08;97576.09;4932735;28;20050;-67
2023/06/22 02:39:55;;;;;;;23.85;6.43;;;;;;;37.12;53.68;97564.69;4949895;28;20055;-66
2023/06/22 02:42:24;;;;;;;24.50;5.93;;;;;;;37.22;50.93;97572.16;4949907;28;20133;-66
2023/06/22 02:44:53;;;;;;;20.55;6.00;;;;;;;37.22;50.46;97574.91;4949724;28;20047;-66
2023/06/22 02:47:22;;;;;;;17.65;5.05;;;;;;;37.41;48.85;97575.69;4950669;28;20053;-66
2023/06/22 02:49:52;;;;;;;27.05;6.13;;;;;;;37.33;48.35;97577.69;4949363;28;20058;-66
2023/06/22 02:52:21;;;;;;;29.52;5.63;;;;;;;37.35;49.44;97573.31;4948147;28;20059;-66
2023/06/22 02:54:52;;;;;;;19.08;5.38;;;;;;;37.81;49.27;97582.75;4936097;28;20054;-66
2023/06/22 02:57:21;;;;;;;21.20;5.25;;;;;;;37.58;46.90;97584.00;4930299;28;20146;-66
2023/06/22 02:59:51;;;;;;;28.63;5.70;;;;;;;37.75;47.94;97593.44;4954472;28;20055;-65
2023/06/22 03:02:21;;;;;;;20.83;5.78;;;;;;;37.59;48.73;97584.78;4935212;28;20051;-66
2023/06/22 03:04:53;;;;;;;42.25;8.10;;;;;;;38.09;48.87;97591.78;4953469;28;20158;-67
2023/06/22 03:07:23;;;;;;;25.33;5.63;;;;;;;38.18;47.50;97583.06;4960693;28;20046;-67
2023/06/22 03:09:55;;;;;;;21.85;5.30;;;;;;;38.33;47.08;97581.03;4944623;28;20525;-66
2023/06/22 03:12:24;;;;;;;19.05;5.75;;;;;;;38.34;46.52;97593.66;4934347;28;20740;-67
2023/06/22 03:14:55;;;;;;;24.23;6.70;;;;;;;38.23;44.69;97596.47;4947237;28;20106;-67
2023/06/22 03:17:25;;;;;;;19.80;5.05;;;;;;;38.01;46.14;97592.22;4959997;28;20096;-66
2023/06/22 03:19:54;;;;;;;23.67;7.53;;;;;;;37.95;46.46;97599.31;4950169;28;20047;-66
2023/06/22 03:22:24;;;;;;;31.63;6.80;;;;;;;37.72;46.64;97600.56;4950013;28;20051;-66
2023/06/22 03:24:53;;;;;;;23.73;5.60;;;;;;;38.00;46.07;97601.69;4943434;28;20065;-66
2023/06/22 03:27:23;;;;;;;33.20;7.43;;;;;;;37.98;46.24;97593.00;4941596;28;20059;-65
2023/06/22 03:29:52;;;;;;;23.48;6.43;;;;;;;38.20;46.60;97594.50;4944581;28;20185;-65
2023/06/22 03:32:24;;;;;;;20.30;5.80;;;;;;;38.04;45.95;97589.44;4943325;28;20039;-66
2023/06/22 03:34:58;;;;;;;28.35;5.90;;;;;;;38.19;45.52;97592.94;4942251;28;20057;-66
2023/06/22 03:37:29;;;;;;;29.05;6.50;;;;;;;38.42;45.65;97587.69;4947250;28;20046;-66
2023/06/22 03:40:00;;;;;;;25.58;6.47;;;;;;;38.34;45.78;97583.38;4919252;28;20487;-65
2023/06/22 03:42:30;;;;;;;26.55;5.85;;;;;;;38.19;45.40;97590.97;4930455;28;20078;-66
2023/06/22 03:45:00;;;;;;;21.30;6.20;;;;;;;38.40;47.06;97594.81;4942912;28;20050;-67
2023/06/22 03:47:31;;;;;;;21.27;6.30;;;;;;;38.71;45.66;97593.88;4943562;28;20137;-66
2023/06/22 03:50:00;;;;;;;27.02;5.95;;;;;;;38.64;46.19;97580.84;4918316;28;20081;-66
2023/06/22 03:52:30;;;;;;;21.98;5.68;;;;;;;38.33;45.33;97578.25;4959387;28;20046;-66
2023/06/22 03:54:59;;;;;;;21.73;7.40;;;;;;;38.35;46.34;97590.50;4958042;28;20475;-66
2023/06/22 03:57:29;;;;;;;25.08;5.95;;;;;;;38.70;45.42;97585.97;4916006;28;20047;-66
2023/06/22 03:59:59;;;;;;;23.60;6.38;;;;;;;38.55;46.43;97582.53;4960832;28;20058;-67
2023/06/22 04:02:39;;;;;;;21.85;6.20;;;;;;;38.84;45.70;97578.38;4958328;28;20365;-67
2023/06/22 04:05:10;;;;;;;27.98;7.25;;;;;;;38.20;45.90;97595.28;4938804;28;20047;-65
2023/06/22 04:07:41;;;;;;;26.58;7.20;;;;;;;38.27;46.04;97597.25;4942477;28;20072;-65
2023/06/22 04:10:11;;;;;;;30.98;8.00;;;;;;;38.43;46.61;97585.72;4958371;28;20065;-66
2023/06/22 04:12:44;;;;;;;35.85;7.10;;;;;;;38.43;47.11;97582.97;4934004;28;20038;-66
2023/06/22 04:15:14;;;;;;;34.22;6.70;;;;;;;38.37;45.90;97579.81;4958472;28;20054;-65
2023/06/22 04:17:43;;;;;;;29.13;6.72;;;;;;;38.38;47.04;97589.66;4938703;28;20566;-66
2023/06/22 04:20:12;;;;;;;29.67;6.57;;;;;;;38.37;47.02;97588.13;4957839;28;20510;-66
2023/06/22 04:22:42;;;;;;;23.63;7.45;;;;;;;38.77;48.20;97577.63;4930876;28;20050;-66
2023/06/22 04:25:11;;;;;;;23.95;6.10;;;;;;;39.12;50.07;97579.38;4957788;28;20042;-66
2023/06/22 04:27:41;;;;;;;20.00;5.88;;;;;;;38.88;45.35;97576.38;4941936;28;20050;-65
2023/06/22 04:30:10;;;;;;;30.33;7.40;;;;;;;38.44;45.82;97584.53;4941156;28;20637;-65
2023/06/22 04:32:40;;;;;;;29.80;6.28;;;;;;;38.47;46.26;97581.75;4947187;28;21159;-65
2023/06/22 04:35:11;;;;;;;20.90;6.53;;;;;;;38.69;46.52;97582.41;4940241;28;20062;-65
2023/06/22 04:37:41;;;;;;;24.02;6.05;;;;;;;38.62;44.67;97588.00;4941357;28;20047;-65
2023/06/22 04:40:10;;;;;;;24.98;5.95;;;;;;;38.81;47.17;97586.69;4958472;28;20122;-67
2023/06/22 04:42:40;;;;;;;28.17;7.22;;;;;;;38.67;47.65;97582.03;4941500;28;20137;-65
2023/06/22 04:45:10;;;;;;;24.25;6.03;;;;;;;38.28;46.71;97585.00;4956416;28;20278;-66
2023/06/22 04:47:40;;;;;;;24.77;6.30;;;;;;;38.58;48.18;97584.47;4959018;28;20063;-65
2023/06/22 04:50:09;;;;;;;24.63;6.75;;;;;;;38.85;48.26;97584.69;4924238;28;20678;-65
2023/06/22 04:52:39;;;;;;;23.58;6.28;;;;;;;38.88;46.07;97583.91;4958086;28;20058;-65
2023/06/22 04:55:08;;;;;;;20.40;5.35;;;;;;;38.44;45.98;97595.59;4958487;28;20070;-65
2023/06/22 04:57:44;;;;;;;23.75;6.35;;;;;;;38.58;45.83;97590.00;4958670;28;20069;-65
2023/06/22 05:00:16;;;;;;;;;;;;;;;39.07;48.83;97586.94;4930116;28;20051;-65
2023/06/22 05:02:47;;;;;;;23.75;8.20;;;;;;;38.98;45.53;97583.84;4940206;28;20370;-66
2023/06/22 05:05:17;;;;;;;21.42;5.82;;;;;;;39.23;46.22;97582.84;4938776;28;20517;-65
2023/06/22 05:07:52;;;;;;;29.35;7.57;;;;;;;39.53;43.35;97580.19;4921131;28;20133;-65
2023/06/22 05:10:22;;;;;;;36.53;8.30;;;;;;;39.36;46.09;97575.63;4957002;28;20138;-65
2023/06/22 05:12:51;;;;;;;28.05;8.95;;;;;;;39.50;44.22;97578.25;4954696;28;20047;-66
2023/06/22 05:15:22;;;;;;;35.10;12.48;;;;;;;39.68;45.24;97580.84;4955956;28;20058;-66
2023/06/22 05:17:53;;;;;;;37.85;11.18;;;;;;;40.06;45.08;97587.19;4941404;28;20062;-66
2023/06/22 05:20:23;;;;;;;39.92;13.27;;;;;;;39.97;45.95;97589.69;4931415;28;20057;-67
2023/06/22 05:22:52;;;;;;;43.85;11.93;;;;;;;40.46;46.37;97582.72;4955359;28;20471;-67
2023/06/22 05:25:22;;;;;;;34.95;11.88;;;;;;;40.27;45.73;97586.97;4931368;28;20137;-67
2023/06/22 05:27:52;;;;;;;31.63;11.07;;;;;;;39.74;46.35;97588.34;4915646;28;20117;-67
2023/06/22 05:30:21;;;;;;;33.25;8.80;;;;;;;39.33;46.84;97590.31;4955697;28;20050;-68
2023/06/22 05:32:52;;;;;;;31.35;9.93;;;;;;;39.33;49.17;97591.09;4933472;28;20145;-66
2023/06/22 05:35:22;;;;;;;25.95;9.18;;;;;;;39.21;46.40;97590.78;4938586;28;20054;-66
2023/06/22 05:37:52;;;;;;;29.25;7.85;;;;;;;39.52;49.21;97581.41;4955004;28;20152;-65
2023/06/22 05:40:22;;;;;;;23.05;8.13;;;;;;;40.11;46.52;97587.50;4945051;28;20057;-66
2023/06/22 05:42:51;;;;;;;29.23;8.82;;;;;;;39.93;45.08;97584.94;4936574;28;20042;-63
2023/06/22 05:45:21;;;;;;;29.65;9.02;;;;;;;39.42;45.89;97580.31;4941233;28;20061;-64
2023/06/22 05:47:53;;;;;;;33.10;9.60;;;;;;;39.25;45.59;97592.31;4940975;28;20057;-63
2023/06/22 05:50:29;;;;;;;27.85;8.00;;;;;;;39.19;46.64;97591.19;4955602;28;20047;-64
2023/06/22 05:53:00;;;;;;;31.10;9.60;;;;;;;39.15;46.81;97589.63;4958402;28;20054;-67
2023/06/22 05:55:30;;;;;;;32.75;9.32;;;;;;;39.13;47.67;97597.56;4939216;28;20088;-67
2023/06/22 05:58:06;;;;;;;33.83;9.45;;;;;;;38.84;46.57;97586.66;4956221;28;20062;-64
2023/06/22 06:00:36;;;;;;;35.50;8.57;;;;;;;39.14;48.10;97586.06;4956662;28;20054;-64
2023/06/22 06:03:08;;;;;;;34.60;8.25;;;;;;;39.25;47.75;97592.31;4955174;28;20054;-64
2023/06/22 06:05:41;;;;;;;28.63;7.30;;;;;;;39.43;47.17;97581.13;4957194;28;20136;-65
2023/06/22 06:08:11;;;;;;;31.42;7.82;;;;;;;39.62;45.87;97577.72;4933990;28;20096;-63
2023/06/22 06:10:41;;;;;;;27.90;6.88;;;;;;;39.51;43.81;97585.38;4957005;28;20065;-64
2023/06/22 06:13:10;;;;;;;23.95;7.45;;;;;;;39.47;49.01;97579.09;4957147;28;20067;-64
2023/06/22 06:15:40;;;;;;;23.55;7.50;;;;;;;39.53;47.79;97575.44;4945040;28;20054;-64
2023/06/22 06:18:10;;;;;;;25.10;6.70;;;;;;;39.19;45.14;97579.31;4958438;28;20062;-64
2023/06/22 06:20:40;;;;;;;28.65;7.38;;;;;;;39.93;47.84;97575.84;4956835;28;20055;-64
2023/06/22 06:23:09;;;;;;;31.67;6.93;;;;;;;39.99;47.60;97578.94;4927993;28;20070;-64
2023/06/22 06:25:39;;;;;;;28.98;6.68;;;;;;;39.83;47.16;97583.06;4944441;28;20074;-65
2023/06/22 06:28:08;;;;;;;22.83;6.90;;;;;;;39.70;44.47;97579.22;4938376;28;21664;-64
2023/06/22 06:30:38;;;;;;;28.98;7.68;;;;;;;39.72;45.25;97579.63;4931704;28;20078;-64
2023/06/22 06:33:08;;;;;;;25.75;7.20;;;;;;;39.55;45.85;97575.03;4941891;28;20098;-64
2023/06/22 06:35:38;;;;;;;24.75;6.82;;;;;;;39.79;47.77;97574.00;4961095;28;20038;-64
2023/06/22 06:38:07;;;;;;;21.40;6.70;;;;;;;39.95;44.37;97576.22;4942164;28;20054;-64
2023/06/22 06:40:37;;;;;;;22.55;6.70;;;;;;;39.88;47.44;97582.63;4961237;28;20062;-64
2023/06/22 06:43:06;;;;;;;27.83;7.43;;;;;;;39.37;46.51;97572.44;4960218;28;20482;-65
2023/06/22 06:45:36;;;;;;;22.52;6.55;;;;;;;39.58;44.51;97571.44;4961833;28;20145;-65
2023/06/22 06:48:06;;;;;;;26.70;6.22;;;;;;;39.63;46.34;97575.75;4947404;28;20066;-65
2023/06/22 06:50:36;;;;;;;27.10;6.75;;;;;;;39.79;48.86;97576.78;4948195;28;20069;-69
2023/06/22 06:53:06;;;;;;;19.88;6.47;;;;;;;39.41;43.10;97564.09;4960417;28;20414;-68
2023/06/22 06:55:35;;;;;;;30.13;7.38;;;;;;;39.35;45.23;97562.94;4949966;28;20402;-65
2023/06/22 06:58:07;;;;;;;21.58;6.72;;;;;;;39.61;45.63;97572.63;4960651;28;20051;-68
2023/06/22 07:00:37;;;;;;;21.63;6.88;;;;;;;39.76;45.61;97574.06;4961868;28;20518;-66
2023/06/22 07:03:07;;;;;;;22.38;6.32;;;;;;;39.79;43.92;97568.47;4942340;28;20050;-66
2023/06/22 07:05:37;;;;;;;23.05;6.75;;;;;;;39.92;44.66;97565.97;4949015;28;20059;-66
2023/06/22 07:08:06;;;;;;;28.77;5.95;;;;;;;39.72;43.97;97567.72;4941320;28;20656;-68
2023/06/22 07:10:36;;;;;;;25.65;6.20;;;;;;;39.75;43.47;97561.38;4949317;28;20194;-67
2023/06/22 07:13:05;;;;;;;29.48;7.15;;;;;;;39.76;43.48;97568.50;4948364;28;20050;-67
2023/06/22 07:15:35;;;;;;;29.92;7.95;;;;;;;39.60;44.45;97557.19;4960911;28;20149;-66
2023/06/22 07:18:04;;;;;;;35.80;6.65;;;;;;;39.70;44.42;97554.28;4960753;28;20074;-69
2023/06/22 07:20:34;;;;;;;23.98;6.85;;;;;;;39.64;43.52;97555.94;4948487;28;20062;-66
2023/06/22 07:23:04;;;;;;;24.05;6.72;;;;;;;39.83;42.73;97555.34;4959144;28;20617;-67
2023/06/22 07:25:34;;;;;;;28.85;7.43;;;;;;;39.77;44.40;97554.25;4959682;28;20126;-69
2023/06/22 07:28:05;;;;;;;23.00;6.50;;;;;;;39.75;43.62;97547.50;4960157;28;20050;-65
2023/06/22 07:30:35;;;;;;;21.70;6.63;;;;;;;39.82;43.12;97547.47;4931193;28;20066;-69
2023/06/22 07:33:08;;;;;;;37.47;6.78;;;;;;;39.84;43.57;97548.59;4918816;28;20063;-67
2023/06/22 07:35:38;;;;;;;25.80;6.47;;;;;;;39.39;42.05;97549.88;4959882;28;20177;-72
2023/06/22 07:38:08;;;;;;;21.55;6.03;;;;;;;39.47;43.38;97543.06;4959796;28;20122;-69
2023/06/22 07:40:38;;;;;;;23.55;5.53;;;;;;;39.77;42.90;97537.59;4942038;28;20153;-67
2023/06/22 07:43:07;;;;;;;19.90;5.60;;;;;;;39.82;42.73;97531.59;4948205;28;20645;-68
2023/06/22 07:45:40;;;;;;;22.58;6.15;;;;;;;39.66;41.44;97527.78;4961551;28;20489;-67
2023/06/22 07:48:09;;;;;;;;;;;;;;;39.61;44.39;97531.03;4960005;28;20050;-68
2023/06/22 07:50:38;;;;;;;16.10;5.47;;;;;;;39.26;40.70;97521.84;4946496;28;19933;-66
2023/06/22 07:53:08;;;;;;;30.10;7.38;;;;;;;39.32;43.20;97522.22;4930781;28;20328;-69
2023/06/22 07:55:40;;;;;;;21.50;6.60;;;;;;;39.41;42.10;97516.97;4931765;28;20181;-67
2023/06/22 07:58:10;;;;;;;19.42;6.30;;;;;;;39.57;43.65;97519.19;4941232;28;20054;-69
2023/06/22 08:00:40;;;;;;;34.90;7.22;;;;;;;39.73;45.23;97524.94;4960093;28;20050;-66
2023/06/22 08:03:09;;;;;;;23.02;5.93;;;;;;;39.61;43.78;97506.88;4944938;28;20069;-67
2023/06/22 08:05:39;;;;;;;19.00;6.97;;;;;;;39.80;45.51;97513.78;4947502;28;20114;-67
2023/06/22 08:08:08;;;;;;;29.25;7.38;;;;;;;39.33;45.66;97504.41;4941868;28;20062;-66
2023/06/22 08:10:38;;;;;;;24.02;5.65;;;;;;;39.31;43.90;97506.78;4959189;28;20057;-67
2023/06/22 08:13:07;;;;;;;27.23;6.15;;;;;;;39.25;42.04;97497.31;4946656;28;20046;-68
2023/06/22 08:15:38;;;;;;;22.60;6.47;;;;;;;39.20;43.38;97495.00;4960076;28;20059;-69
2023/06/22 08:18:07;;;;;;;19.17;5.93;;;;;;;39.30;43.89;97494.13;4921565;28;20116;-67
2023/06/22 08:20:37;;;;;;;29.05;8.27;;;;;;;39.49;45.76;97493.53;4959931;28;20113;-68
2023/06/22 08:23:06;;;;;;;26.70;6.78;;;;;;;39.58;45.35;97488.28;4959583;28;20081;-69
2023/06/22 08:25:36;;;;;;;22.60;6.63;;;;;;;39.58;44.59;97493.81;4941153;28;20176;-70
2023/06/22 08:28:07;;;;;;;23.95;7.03;;;;;;;39.32;43.34;97491.72;4929765;28;20815;-68
2023/06/22 08:30:37;;;;;;;21.02;7.22;;;;;;;39.16;43.25;97483.97;4959247;28;20050;-68
2023/06/22 08:33:06;;;;;;;21.15;6.35;;;;;;;39.27;46.01;97479.09;4958567;28;20061;-68
2023/06/22 08:35:35;;;;;;;28.33;6.60;;;;;;;39.38;45.40;97481.78;4960239;28;20077;-66
2023/06/22 08:38:06;;;;;;;28.02;7.68;;;;;;;39.44;46.93;97475.34;4947537;28;20109;-68
2023/06/22 08:40:35;;;;;;;33.17;7.00;;;;;;;39.35;44.49;97479.81;4959651;28;20503;-69
2023/06/22 08:43:05;;;;;;;22.73;6.40;;;;;;;39.42;44.10;97474.22;4956319;28;20062;-68
2023/06/22 08:45:35;;;;;;;24.17;7.82;;;;;;;39.48;46.52;97462.25;4958868;28;20062;-69
2023/06/22 08:48:05;;;;;;;36.35;9.30;;;;;;;39.49;44.66;97457.50;4941084;28;20070;-69
2023/06/22 08:50:34;;;;;;;23.90;8.65;;;;;;;39.51;45.25;97460.66;4958675;28;20061;-69
2023/06/22 08:53:04;;;;;;;23.98;7.60;;;;;;;39.53;45.09;97458.22;4958049;28;20149;-70
2023/06/22 08:55:34;;;;;;;25.02;6.80;;;;;;;39.57;45.06;97452.66;4940028;28;20046;-68
2023/06/22 08:58:04;;;;;;;33.08;7.75;;;;;;;39.55;46.65;97441.97;4939412;28;20070;-68
2023/06/22 09:00:34;;;;;;;21.40;7.07;;;;;;;39.52;44.14;97440.81;4957500;28;20050;-69
2023/06/22 09:03:04;;;;;;;30.60;7.43;;;;;;;39.44;45.69;97431.00;4958781;28;20763;-69
2023/06/22 09:05:34;;;;;;;28.58;7.80;;;;;;;39.46;46.38;97433.38;4928322;28;20981;-69
2023/06/22 09:08:05;;;;;;;26.08;6.80;;;;;;;39.45;44.32;97429.81;4926803;28;20109;-69
2023/06/22 09:10:35;;;;;;;32.88;7.85;;;;;;;39.46;44.18;97420.31;4912413;28;20770;-68
2023/06/22 09:13:05;;;;;;;23.48;8.43;;;;;;;39.39;45.83;97414.84;4928342;28;20130;-69
2023/06/22 09:15:35;;;;;;;18.10;6.63;;;;;;;39.47;45.44;97415.56;4928088;28;20138;-68
2023/06/22 09:18:05;;;;;;;20.58;8.07;;;;;;;39.47;44.84;97415.56;4927407;28;20058;-68
2023/06/22 09:20:35;;;;;;;29.70;7.32;;;;;;;39.41;45.64;97408.88;4925387;28;20053;-68
2023/06/22 09:23:05;;;;;;;26.63;6.93;;;;;;;39.44;44.72;97413.59;4925322;28;20052;-67
2023/06/22 09:25:34;;;;;;;19.08;6.40;;;;;;;39.48;46.41;97406.03;4894015;28;20998;-68
2023/06/22 09:28:04;;;;;;;20.85;7.57;;;;;;;39.35;46.40;97396.69;4926525;28;20043;-68
2023/06/22 09:30:33;;;;;;;24.17;7.60;;;;;;;39.39;45.22;97398.22;4927655;28;20051;-68
2023/06/22 09:33:03;;;;;;;24.40;8.38;;;;;;;39.48;44.77;97397.72;4916033;28;20063;-68
2023/06/22 09:35:34;;;;;;;33.50;8.50;;;;;;;39.49;43.51;97385.44;4911959;28;20047;-68
2023/06/22 09:38:08;;;;;;;23.65;8.05;;;;;;;39.49;44.55;97390.97;4923521;28;20047;-68
2023/06/22 09:40:39;;;;;;;25.83;8.55;;;;;;;39.38;43.83;97382.81;4927545;28;20058;-68
2023/06/22 09:43:11;;;;;;;26.63;7.50;;;;;;;39.46;45.43;97377.94;4926888;28;20055;-69
2023/06/22 09:45:41;;;;;;;21.05;7.20;;;;;;;39.48;45.76;97373.56;4927480;28;20043;-69
2023/06/22 09:48:12;;;;;;;25.38;7.38;;;;;;;39.42;44.62;97380.78;4925178;28;20095;-69
2023/06/22 09:50:42;;;;;;;24.27;6.80;;;;;;;39.44;46.22;97372.03;4924908;28;20047;-68
2023/06/22 09:53:12;;;;;;;28.58;7.13;;;;;;;39.42;45.65;97378.00;4909151;28;20051;-68
2023/06/22 09:55:42;;;;;;;40.55;7.97;;;;;;;39.43;46.27;97371.25;4925574;28;20058;-68
2023/06/22 09:58:12;;;;;;;22.75;7.60;;;;;;;39.46;45.51;97367.66;4926241;28;20043;-69
2023/06/22 10:00:41;;;;;;;28.60;7.43;;;;;;;39.34;45.68;97365.44;4927823;28;20051;-69
2023/06/22 10:03:12;;;;;;;33.75;7.43;;;;;;;39.30;46.14;97363.88;4928747;28;20047;-69
2023/06/22 10:05:42;;;;;;;33.63;8.55;;;;;;;39.18;44.20;97362.41;4963048;28;20050;-69
2023/06/22 10:08:14;;;;;;;30.27;8.25;;;;;;;39.19;46.09;97361.22;4943381;28;20078;-69
2023/06/22 10:10:43;;;;;;;30.67;7.40;;;;;;;39.21;44.59;97363.59;4615899;28;9999856;-66
2023/06/22 10:13:14;;;;;;;25.13;6.95;;;;;;;39.23;44.40;97356.44;4942140;28;20050;-69
2023/06/22 10:15:49;;;;;;;26.00;6.63;;;;;;;39.32;45.54;97358.72;4960576;28;20047;-68
2023/06/22 10:18:19;;;;;;;22.15;6.45;;;;;;;39.39;45.08;97350.34;4959905;28;20706;-66
2023/06/22 10:20:54;;;;;;;31.85;8.30;;;;;;;39.34;44.81;97348.03;4941054;28;20046;-71
2023/06/22 10:23:23;;;;;;;29.23;7.13;;;;;;;39.33;45.55;97338.94;4931664;28;20082;-68
2023/06/22 10:25:53;;;;;;;24.40;7.38;;;;;;;39.31;45.29;97344.09;4960015;28;20138;-67
2023/06/22 10:28:26;;;;;;;20.70;6.38;;;;;;;39.30;44.92;97345.28;4959451;28;20038;-68
2023/06/22 10:30:57;;;;;;;23.75;8.23;;;;;;;39.25;45.45;97336.63;4959690;28;20129;-69
2023/06/22 10:33:27;;;;;;;21.42;7.03;;;;;;;39.27;45.89;97339.75;4940487;28;20137;-67
2023/06/22 10:35:57;;;;;;;26.13;7.20;;;;;;;39.29;44.64;97332.63;4960167;28;20478;-66
2023/06/22 10:38:26;;;;;;;21.42;6.85;;;;;;;39.25;43.84;97336.63;4941656;28;20146;-66
2023/06/22 10:40:56;;;;;;;23.10;7.75;;;;;;;39.09;43.36;97331.66;4959926;28;20490;-68
2023/06/22 10:43:27;;;;;;;20.88;6.45;;;;;;;39.04;44.88;97324.59;4941219;28;20411;-67
2023/06/22 10:45:56;;;;;;;21.48;6.22;;;;;;;39.11;45.12;97325.72;4942038;28;20051;-68
2023/06/22 10:48:26;;;;;;;24.13;6.82;;;;;;;39.13;44.21;97317.75;4947578;28;20051;-68
2023/06/22 10:50:55;;;;;;;27.10;7.50;;;;;;;39.03;43.20;97303.66;4960637;28;20211;-68
2023/06/22 10:53:25;;;;;;;21.40;7.60;;;;;;;39.15;44.63;97312.59;4960284;28;20152;-68
2023/06/22 10:55:54;;;;;;;27.50;6.80;;;;;;;39.19;43.94;97305.81;4942294;28;20055;-70
2023/06/22 10:58:26;;;;;;;22.17;6.78;;;;;;;39.18;42.75;97295.16;4958279;28;20050;-68
2023/06/22 11:00:56;;;;;;;29.63;7.57;;;;;;;39.16;43.10;97284.50;4945907;28;20061;-69
2023/06/22 11:03:25;;;;;;;24.98;7.05;;;;;;;39.13;44.10;97288.06;4958580;28;20081;-68
2023/06/22 11:05:55;;;;;;;25.83;6.40;;;;;;;39.15;43.47;97288.47;4958244;28;20051;-68
2023/06/22 11:08:24;;;;;;;32.92;6.10;;;;;;;39.14;43.14;97286.09;4958370;28;20054;-66
2023/06/22 11:10:54;;;;;;;24.15;7.22;;;;;;;39.14;42.45;97284.13;4942086;28;20106;-66
2023/06/22 11:13:25;;;;;;;26.13;6.43;;;;;;;39.18;41.88;97279.31;4958506;28;20085;-67
2023/06/22 11:15:55;;;;;;;18.90;5.93;;;;;;;39.16;42.83;97292.03;4929651;28;20057;-69
2023/06/22 11:18:24;;;;;;;23.92;7.20;;;;;;;39.05;43.45;97281.84;4958403;28;20114;-68
2023/06/22 11:20:54;;;;;;;32.00;6.55;;;;;;;39.03;42.95;97286.25;4954445;28;20066;-67
2023/06/22 11:23:25;;;;;;;23.70;7.32;;;;;;;39.02;40.54;97277.16;4957921;28;20050;-67
2023/06/22 11:25:55;;;;;;;32.03;7.85;;;;;;;39.11;40.40;97278.63;4930251;28;20051;-69
2023/06/22 11:28:25;;;;;;;17.98;6.30;;;;;;;39.07;43.00;97273.94;4958352;28;20065;-66
2023/06/22 11:30:55;;;;;;;18.40;5.90;;;;;;;39.01;42.22;97261.72;4956386;28;20051;-68
2023/06/22 11:33:26;;;;;;;21.27;5.40;;;;;;;38.96;41.98;97264.16;4957480;28;20112;-67
2023/06/22 11:35:57;;;;;;;26.27;6.65;;;;;;;38.92;41.74;97264.22;4946595;28;20090;-68
2023/06/22 11:38:26;;;;;;;19.00;6.15;;;;;;;38.86;43.52;97265.84;4959350;28;20046;-68
2023/06/22 11:40:56;;;;;;;24.65;6.07;;;;;;;38.82;42.25;97259.56;4941251;28;20065;-69